Time;durP1;ratioP1;P1;durP2;ratioP2;P2;SDS_P1;SDS_P2;PMS_P1;PMS_P2;Temp;Humidity;BMP_temperature;BMP_pressure;BME280_temperature;BME280_humidity;BME280_pressure;Samples;Min_cycle;Max_cycle;Signal;HPM_P1;HPM_P2
2023/08/21 00:00:33;;;;;;;2.90;2.63;;;23.90;99.90;;;;;;5113686;28;20563;-84
2023/08/21 00:03:00;;;;;;;6.85;3.00;;;24.00;99.90;;;;;;5113366;28;20233;-84
2023/08/21 00:05:27;;;;;;;4.30;3.28;;;23.90;99.90;;;;;;5113661;28;20224;-84
2023/08/21 00:07:54;;;;;;;2.47;2.28;;;23.90;99.90;;;;;;5113698;28;20209;-84
2023/08/21 00:10:20;;;;;;;3.85;2.72;;;23.80;99.90;;;;;;5113529;28;20713;-84
2023/08/21 00:12:47;;;;;;;5.28;2.40;;;23.80;99.90;;;;;;5113275;28;20661;-84
2023/08/21 00:15:14;;;;;;;3.35;3.05;;;23.80;99.90;;;;;;5113549;28;20701;-84
2023/08/21 00:17:42;;;;;;;2.97;2.50;;;23.80;99.90;;;;;;5113249;28;20201;-84
2023/08/21 00:20:10;;;;;;;2.55;2.35;;;23.80;99.90;;;;;;5113699;28;20204;-84
2023/08/21 00:22:36;;;;;;;3.20;2.90;;;23.80;99.90;;;;;;5113503;28;20254;-84
2023/08/21 00:25:04;;;;;;;3.33;3.00;;;23.80;99.90;;;;;;5113113;28;20586;-84
2023/08/21 00:27:31;;;;;;;3.50;3.00;;;23.80;99.90;;;;;;5113523;28;20278;-84
2023/08/21 00:29:59;;;;;;;3.70;3.08;;;23.80;99.90;;;;;;5113200;28;20566;-84
2023/08/21 00:32:25;;;;;;;4.28;2.47;;;23.80;99.90;;;;;;5113379;28;20228;-84
2023/08/21 00:34:53;;;;;;;4.50;3.30;;;23.70;99.90;;;;;;5113058;28;20592;-84
2023/08/21 00:37:20;;;;;;;1.83;1.67;;;23.70;99.90;;;;;;5113090;28;20208;-84
2023/08/21 00:39:47;;;;;;;5.00;2.83;;;23.60;99.90;;;;;;5113375;28;20223;-84
2023/08/21 00:42:14;;;;;;;4.13;2.88;;;23.70;99.90;;;;;;5113344;28;20197;-84
2023/08/21 00:44:40;;;;;;;4.57;3.33;;;23.60;99.90;;;;;;5113502;28;20666;-84
2023/08/21 00:47:07;;;;;;;2.35;2.10;;;23.60;99.90;;;;;;5113571;28;20204;-84
2023/08/21 00:49:35;;;;;;;3.53;2.90;;;23.50;99.90;;;;;;5113339;28;20197;-84
2023/08/21 00:52:03;;;;;;;3.28;3.00;;;23.50;99.90;;;;;;5112889;28;20723;-84
2023/08/21 00:54:31;;;;;;;5.78;3.40;;;23.50;99.90;;;;;;5113212;28;20223;-84
2023/08/21 00:56:58;;;;;;;8.05;3.63;;;23.40;99.90;;;;;;5112898;28;20665;-82
2023/08/21 00:59:24;;;;;;;3.00;2.53;;;23.40;99.90;;;;;;5113248;28;20197;-82
2023/08/21 01:01:52;;;;;;;3.53;3.33;;;23.30;99.90;;;;;;5115660;28;20567;-82
2023/08/21 01:04:18;;;;;;;3.63;2.97;;;23.30;99.90;;;;;;5116592;28;20240;-82
2023/08/21 01:06:45;;;;;;;4.87;2.70;;;23.30;99.90;;;;;;5116460;28;20201;-82
2023/08/21 01:09:23;;;;;;;2.58;2.38;;;23.20;99.90;;;;;;5116736;28;20201;-82
2023/08/21 01:11:57;;;;;;;4.65;2.80;;;23.30;99.90;;;;;;5116637;28;20209;-82
2023/08/21 01:14:29;;;;;;;4.50;2.73;;;23.20;99.90;;;;;;5116619;28;20196;-82
2023/08/21 01:17:01;;;;;;;3.88;2.83;;;23.30;99.90;;;;;;5116668;28;20181;-82
2023/08/21 01:19:32;;;;;;;3.67;2.80;;;23.30;99.90;;;;;;5116551;28;20234;-82
2023/08/21 01:21:59;;;;;;;3.23;2.70;;;23.20;99.90;;;;;;5116668;28;20246;-82
2023/08/21 01:24:27;;;;;;;2.88;2.67;;;23.20;99.90;;;;;;5116363;28;20599;-82
2023/08/21 01:26:54;;;;;;;4.60;2.40;;;23.20;99.90;;;;;;5116071;28;20211;-82
2023/08/21 01:29:21;;;;;;;3.10;2.80;;;23.20;99.90;;;;;;5116299;28;20197;-82
2023/08/21 01:31:51;;;;;;;3.00;2.47;;;23.20;99.90;;;;;;5115907;28;20704;-82
2023/08/21 01:34:18;;;;;;;4.50;2.83;;;23.20;99.90;;;;;;5115917;28;20181;-82
2023/08/21 01:36:46;;;;;;;4.47;2.97;;;23.20;99.90;;;;;;5115872;28;20585;-82
2023/08/21 01:39:14;;;;;;;4.50;2.87;;;23.10;99.90;;;;;;5116129;28;20200;-82
2023/08/21 01:41:42;;;;;;;4.20;3.80;;;23.10;99.90;;;;;;5116258;28;20203;-82
2023/08/21 01:44:09;;;;;;;3.38;2.60;;;23.10;99.90;;;;;;5115996;28;20207;-82
2023/08/21 01:46:36;;;;;;;3.40;2.97;;;23.00;99.90;;;;;;5115699;28;20689;-82
2023/08/21 01:49:03;;;;;;;4.50;2.60;;;23.00;99.90;;;;;;5115973;28;20193;-82
2023/08/21 01:51:29;;;;;;;4.93;3.10;;;23.00;99.90;;;;;;5115530;28;20713;-82
2023/08/21 01:53:56;;;;;;;5.28;3.15;;;23.00;99.90;;;;;;5115534;28;20228;-82
2023/08/21 01:56:23;;;;;;;2.93;2.63;;;22.90;99.90;;;;;;5115744;28;20217;-82
2023/08/21 01:58:51;;;;;;;4.23;2.70;;;22.80;99.90;;;;;;5115762;28;20197;-82
2023/08/21 02:01:18;;;;;;;4.03;2.77;;;22.80;99.90;;;;;;5115742;28;20200;-82
2023/08/21 02:03:46;;;;;;;3.93;3.00;;;22.70;99.90;;;;;;5115189;28;20232;-82
2023/08/21 02:06:13;;;;;;;3.83;3.20;;;22.70;99.90;;;;;;5115506;28;20217;-82
2023/08/21 02:08:40;;;;;;;3.65;2.85;;;22.70;99.90;;;;;;5115568;28;20201;-82
2023/08/21 02:11:07;;;;;;;3.17;2.87;;;22.70;99.90;;;;;;5115431;28;20229;-82
2023/08/21 02:13:33;;;;;;;3.27;2.50;;;22.70;99.90;;;;;;5114807;27;20200;-82
2023/08/21 02:16:02;;;;;;;2.70;2.50;;;22.80;99.90;;;;;;5115401;28;20216;-82
2023/08/21 02:18:29;;;;;;;4.03;3.33;;;22.80;99.90;;;;;;5115063;28;20665;-82
2023/08/21 02:20:55;;;;;;;2.95;2.42;;;22.80;99.90;;;;;;5115248;28;20972;-82
2023/08/21 02:23:24;;;;;;;6.93;3.00;;;22.80;99.90;;;;;;5115307;28;20201;-82
2023/08/21 02:25:51;;;;;;;4.80;3.07;;;22.80;99.90;;;;;;5115183;28;20246;-82
2023/08/21 02:28:17;;;;;;;3.27;2.87;;;22.80;99.90;;;;;;5115200;28;20201;-82
2023/08/21 02:30:44;;;;;;;2.73;2.50;;;22.80;99.90;;;;;;5115092;28;20205;-82
2023/08/21 02:33:12;;;;;;;4.20;3.00;;;22.80;99.90;;;;;;5114806;28;20200;-82
2023/08/21 02:35:39;;;;;;;2.80;2.60;;;22.80;99.90;;;;;;5114597;28;20841;-82
2023/08/21 02:38:06;;;;;;;3.57;3.13;;;22.80;99.90;;;;;;5115015;28;20204;-82
2023/08/21 02:40:33;;;;;;;7.20;2.60;;;22.70;99.90;;;;;;5114959;27;20204;-82
2023/08/21 02:42:59;;;;;;;3.20;2.90;;;22.70;99.90;;;;;;5114920;28;20202;-82
2023/08/21 02:45:26;;;;;;;4.87;2.13;;;22.70;99.90;;;;;;5114426;28;20615;-82
2023/08/21 02:47:53;;;;;;;3.40;2.57;;;22.70;99.90;;;;;;5114829;28;20201;-82
2023/08/21 02:50:21;;;;;;;5.70;3.73;;;22.70;99.90;;;;;;5114729;28;20200;-82
2023/08/21 02:52:48;;;;;;;4.10;3.03;;;22.60;99.90;;;;;;5114297;28;20614;-82
2023/08/21 02:55:15;;;;;;;4.73;2.90;;;22.60;99.90;;;;;;5114300;28;20224;-82
2023/08/21 02:57:42;;;;;;;16.60;2.40;;;22.60;99.90;;;;;;5114290;28;20557;-82
2023/08/21 03:00:11;;;;;;;3.10;2.80;;;22.50;99.90;;;;;;5114566;28;20434;-82
2023/08/21 03:02:42;;;;;;;3.13;2.50;;;22.50;99.90;;;;;;5114300;28;20197;-82
2023/08/21 03:05:09;;;;;;;4.43;3.40;;;22.50;99.90;;;;;;5114425;28;20481;-82
2023/08/21 03:07:38;;;;;;;3.47;2.77;;;22.40;99.90;;;;;;5114389;28;20447;-82
2023/08/21 03:10:05;;;;;;;3.60;2.57;;;22.40;99.90;;;;;;5114086;28;20673;-82
2023/08/21 03:12:32;;;;;;;3.67;2.60;;;22.40;99.90;;;;;;5114255;28;20485;-82
2023/08/21 03:14:59;;;;;;;3.77;2.93;;;22.30;99.90;;;;;;5114243;28;20220;-82
2023/08/21 03:17:25;;;;;;;3.97;2.97;;;22.30;99.90;;;;;;5114277;28;20789;-82
2023/08/21 03:19:52;;;;;;;3.30;3.00;;;22.30;99.90;;;;;;5113934;28;20443;-82
2023/08/21 03:22:19;;;;;;;4.23;2.80;;;22.20;99.90;;;;;;5113873;28;20435;-82
2023/08/21 03:24:47;;;;;;;3.57;2.80;;;22.20;99.90;;;;;;5113870;28;20465;-82
2023/08/21 03:27:17;;;;;;;2.57;2.37;;;22.10;99.90;;;;;;5113851;28;20199;-82
2023/08/21 03:29:48;;;;;;;6.43;3.33;;;22.20;99.90;;;;;;5114363;28;20479;-82
2023/08/21 03:32:15;;;;;;;3.33;2.50;;;22.10;99.90;;;;;;5113797;28;20470;-82
2023/08/21 03:34:42;;;;;;;3.10;2.80;;;22.10;99.90;;;;;;5113637;28;20471;-82
2023/08/21 03:37:09;;;;;;;3.53;3.13;;;22.10;99.90;;;;;;5114197;28;20443;-82
2023/08/21 03:39:36;;;;;;;5.07;2.60;;;22.10;99.90;;;;;;5113946;28;20438;-82
2023/08/21 03:42:04;;;;;;;3.23;2.70;;;22.10;99.90;;;;;;5113673;28;20484;-82
2023/08/21 03:44:31;;;;;;;3.30;3.00;;;22.10;99.90;;;;;;5113825;28;20467;-82
2023/08/21 03:46:58;;;;;;;4.10;2.47;;;22.00;99.90;;;;;;5113876;28;20807;-82
2023/08/21 03:49:24;;;;;;;3.13;2.10;;;22.00;99.90;;;;;;5113879;28;20446;-82
2023/08/21 03:51:51;;;;;;;6.70;3.10;;;22.00;99.90;;;;;;5113933;28;20485;-82
2023/08/21 03:54:18;;;;;;;2.87;2.53;;;22.00;99.90;;;;;;5113703;28;20469;-82
2023/08/21 03:56:45;;;;;;;2.90;2.60;;;22.00;99.90;;;;;;5113534;28;20953;-82
2023/08/21 03:59:13;;;;;;;2.67;2.47;;;22.00;99.90;;;;;;5113448;28;20954;-82
2023/08/21 04:01:39;;;;;;;2.70;2.50;;;22.00;99.90;;;;;;5113803;28;20445;-82
2023/08/21 04:04:06;;;;;;;8.60;3.00;;;22.10;99.90;;;;;;5113197;28;20470;-82
2023/08/21 04:06:33;;;;;;;3.17;2.77;;;22.00;99.90;;;;;;5113329;28;20958;-82
2023/08/21 04:09:00;;;;;;;4.57;3.40;;;21.90;99.90;;;;;;5113655;28;20446;-82
2023/08/21 04:11:28;;;;;;;3.57;3.20;;;21.90;99.90;;;;;;5113236;28;20836;-82
2023/08/21 04:13:55;;;;;;;5.47;3.00;;;21.90;99.90;;;;;;5113624;28;20497;-82
2023/08/21 04:16:23;;;;;;;3.43;2.73;;;21.90;99.90;;;;;;5113539;28;20851;-82
2023/08/21 04:18:50;;;;;;;3.17;2.90;;;21.80;99.90;;;;;;5113260;28;20803;-82
2023/08/21 04:21:16;;;;;;;10.00;3.43;;;21.90;99.90;;;;;;5113790;28;20441;-82
2023/08/21 04:23:44;;;;;;;2.60;2.40;;;21.80;99.90;;;;;;5113205;28;20939;-82
2023/08/21 04:26:11;;;;;;;4.33;3.07;;;21.70;99.90;;;;;;5113384;28;20459;-82
2023/08/21 04:28:38;;;;;;;2.80;2.53;;;21.70;99.90;;;;;;5113504;28;20457;-82
2023/08/21 04:31:06;;;;;;;3.07;2.50;;;21.70;99.90;;;;;;5113450;28;20435;-82
2023/08/21 04:33:34;;;;;;;6.10;3.73;;;21.70;99.90;;;;;;5113083;28;20482;-82
2023/08/21 04:36:02;;;;;;;2.43;2.30;;;21.70;99.90;;;;;;5114953;28;20527;-82
2023/08/21 04:38:28;;;;;;;3.77;2.90;;;21.70;99.90;;;;;;5117012;28;20446;-82
2023/08/21 04:40:55;;;;;;;3.07;2.77;;;21.70;99.90;;;;;;5117541;28;20442;-82
2023/08/21 04:43:22;;;;;;;3.07;2.77;;;21.70;99.90;;;;;;5117245;28;20445;-82
2023/08/21 04:45:50;;;;;;;4.03;2.77;;;21.70;99.90;;;;;;5117094;28;20474;-82
2023/08/21 04:48:17;;;;;;;4.47;2.80;;;21.70;99.90;;;;;;5117177;28;20434;-82
2023/08/21 04:50:45;;;;;;;3.20;2.70;;;21.70;99.90;;;;;;5117492;28;20438;-82
2023/08/21 04:53:12;;;;;;;7.13;3.37;;;21.70;99.90;;;;;;5116971;28;20481;-82
2023/08/21 04:55:40;;;;;;;6.10;2.80;;;21.70;99.90;;;;;;5116948;28;20458;-83
2023/08/21 04:58:07;;;;;;;3.60;3.10;;;21.70;99.90;;;;;;5116995;28;20438;-82
2023/08/21 05:00:34;;;;;;;6.17;3.30;;;21.70;99.90;;;;;;5116563;28;20819;-82
2023/08/21 05:03:01;;;;;;;4.47;3.47;;;21.80;99.90;;;;;;5116590;28;20470;-82
2023/08/21 05:05:27;;;;;;;3.47;3.17;;;21.80;99.90;;;;;;5116766;28;20465;-82
2023/08/21 05:07:55;;;;;;;4.80;3.73;;;21.80;99.90;;;;;;5116787;28;20453;-82
2023/08/21 05:10:22;;;;;;;3.63;2.90;;;21.80;99.90;;;;;;5116739;28;20439;-82
2023/08/21 05:12:49;;;;;;;2.93;2.70;;;21.80;99.90;;;;;;5116602;28;20485;-82
2023/08/21 05:15:16;;;;;;;3.40;2.73;;;21.90;99.90;;;;;;5116554;28;20485;-82
2023/08/21 05:17:43;;;;;;;3.23;2.13;;;21.90;99.90;;;;;;5116597;28;20443;-82
2023/08/21 05:20:13;;;;;;;4.77;3.07;;;21.90;99.90;;;;;;5116507;28;20438;-82
2023/08/21 05:22:40;;;;;;;4.03;3.53;;;21.90;99.90;;;;;;5116510;28;20434;-82
2023/08/21 05:25:09;;;;;;;6.90;3.10;;;22.00;99.90;;;;;;5116057;28;20983;-82
2023/08/21 05:27:36;;;;;;;4.80;3.50;;;22.00;99.90;;;;;;5116608;28;20465;-82
2023/08/21 05:30:04;;;;;;;4.40;2.90;;;22.00;99.90;;;;;;5116036;28;20441;-82
2023/08/21 05:32:30;;;;;;;3.33;3.03;;;22.10;99.90;;;;;;5116190;28;20482;-83
2023/08/21 05:34:57;;;;;;;3.83;3.10;;;22.10;99.90;;;;;;5116179;28;20477;-82
2023/08/21 05:37:24;;;;;;;4.30;2.73;;;22.10;99.90;;;;;;5116185;28;20441;-83
2023/08/21 05:39:51;;;;;;;3.73;3.27;;;22.20;99.90;;;;;;5116140;28;20442;-83
2023/08/21 05:42:19;;;;;;;4.23;3.57;;;22.20;99.90;;;;;;5116103;28;20451;-82
2023/08/21 05:44:46;;;;;;;3.90;3.03;;;22.30;99.90;;;;;;5115750;27;20716;-83
2023/08/21 05:47:12;;;;;;;7.57;3.47;;;22.30;99.90;;;;;;5116011;28;20434;-83
2023/08/21 05:49:39;;;;;;;4.30;3.87;;;22.40;99.90;;;;;;5115935;28;20443;-83
2023/08/21 05:52:06;;;;;;;3.93;3.20;;;22.40;99.90;;;;;;5115817;28;20482;-82
2023/08/21 05:54:33;;;;;;;3.07;2.27;;;22.50;99.90;;;;;;5115830;28;20478;-82
2023/08/21 05:56:59;;;;;;;3.63;2.87;;;22.70;99.90;;;;;;5115815;28;20449;-82
2023/08/21 05:59:33;;;;;;;5.93;2.57;;;22.70;99.90;;;;;;5115786;28;20200;-82
2023/08/21 06:02:00;;;;;;;3.70;3.40;;;22.80;99.90;;;;;;5115780;28;20193;-82
2023/08/21 06:04:27;;;;;;;3.73;2.70;;;22.90;99.90;;;;;;5115284;28;20240;-82
2023/08/21 06:06:53;;;;;;;5.20;3.70;;;23.10;99.90;;;;;;5115337;28;20684;-82
2023/08/21 06:09:20;;;;;;;4.57;3.13;;;23.20;99.90;;;;;;5115620;27;20197;-82
2023/08/21 06:11:47;;;;;;;2.37;2.17;;;23.40;99.90;;;;;;5115271;28;20207;-82
2023/08/21 06:14:14;;;;;;;4.90;3.30;;;23.40;99.90;;;;;;5115399;28;20220;-83
2023/08/21 06:16:44;;;;;;;4.15;2.72;;;23.60;99.90;;;;;;5115414;28;20200;-83
2023/08/21 06:19:12;;;;;;;2.95;2.50;;;23.80;99.90;;;;;;5115943;28;20193;-83
2023/08/21 06:21:39;;;;;;;2.83;2.53;;;23.90;99.90;;;;;;5115346;28;20197;-83
2023/08/21 06:24:06;;;;;;;3.92;2.80;;;24.00;99.90;;;;;;5114983;28;20193;-83
2023/08/21 06:26:33;;;;;;;4.75;3.17;;;24.10;99.90;;;;;;5114888;28;20575;-83
2023/08/21 06:29:00;;;;;;;2.63;2.42;;;24.20;99.90;;;;;;5115127;28;20286;-83
2023/08/21 06:31:27;;;;;;;3.35;2.78;;;24.30;99.90;;;;;;5115147;28;20261;-83
2023/08/21 06:33:55;;;;;;;3.13;2.30;;;24.40;99.90;;;;;;5114663;28;20327;-83
2023/08/21 06:36:22;;;;;;;3.75;2.92;;;24.50;99.90;;;;;;5114892;28;20224;-83
2023/08/21 06:38:48;;;;;;;2.78;2.45;;;24.60;99.90;;;;;;5114923;28;20196;-83
2023/08/21 06:41:15;;;;;;;4.65;3.95;;;24.70;99.90;;;;;;5114906;28;20201;-83
2023/08/21 06:43:42;;;;;;;4.55;3.28;;;24.80;99.90;;;;;;5114834;28;20204;-83
2023/08/21 06:46:09;;;;;;;3.08;2.83;;;24.90;99.90;;;;;;5114816;28;20235;-83
2023/08/21 06:48:38;;;;;;;4.00;2.88;;;25.00;99.90;;;;;;5114791;28;20574;-83
2023/08/21 06:51:06;;;;;;;2.92;2.35;;;25.10;99.90;;;;;;5114699;28;20211;-83
2023/08/21 06:53:33;;;;;;;3.20;2.85;;;25.10;99.90;;;;;;5114363;28;20217;-83
2023/08/21 06:56:00;;;;;;;4.78;2.30;;;25.20;99.90;;;;;;5114559;28;20255;-82
2023/08/21 06:58:26;;;;;;;2.40;2.20;;;25.30;99.90;;;;;;5114163;28;20200;-83
2023/08/21 07:00:55;;;;;;;3.05;2.60;;;25.40;99.90;;;;;;5114274;28;20696;-83
2023/08/21 07:03:22;;;;;;;3.10;2.90;;;25.50;99.90;;;;;;5114039;28;20231;-83
2023/08/21 07:05:55;;;;;;;3.97;2.78;;;25.60;99.90;;;;;;5114391;27;20220;-83
2023/08/21 07:08:23;;;;;;;3.92;2.63;;;25.60;99.90;;;;;;5114499;28;20197;-83
2023/08/21 07:10:50;;;;;;;3.78;2.90;;;25.80;99.90;;;;;;5114058;28;20377;-83
2023/08/21 07:13:17;;;;;;;2.95;2.55;;;25.90;99.90;;;;;;5113993;28;20205;-83
2023/08/21 07:15:43;;;;;;;4.45;3.47;;;26.00;99.90;;;;;;5114025;28;20224;-83
2023/08/21 07:18:10;;;;;;;4.50;2.60;;;26.00;99.90;;;;;;5114223;28;20200;-83
2023/08/21 07:20:37;;;;;;;3.92;2.55;;;26.10;99.90;;;;;;5113888;28;20752;-83
2023/08/21 07:23:04;;;;;;;3.28;2.95;;;26.20;99.90;;;;;;5114158;28;20288;-82
2023/08/21 07:25:32;;;;;;;3.25;2.92;;;26.40;99.90;;;;;;5114060;28;20220;-82
2023/08/21 07:27:59;;;;;;;5.20;2.90;;;26.50;99.90;;;;;;5114079;28;20207;-82
2023/08/21 07:30:26;;;;;;;3.60;2.92;;;26.60;99.90;;;;;;5114479;28;20209;-83
2023/08/21 07:32:54;;;;;;;3.83;2.58;;;26.70;99.90;;;;;;5113964;28;20213;-83
2023/08/21 07:35:21;;;;;;;2.83;2.60;;;26.90;99.90;;;;;;5113876;28;20227;-83
2023/08/21 07:37:48;;;;;;;4.13;3.60;;;27.20;99.90;;;;;;5114233;28;20205;-82
2023/08/21 07:40:15;;;;;;;5.45;3.78;;;27.30;99.90;;;;;;5113661;28;20673;-82
2023/08/21 07:42:43;;;;;;;4.00;3.40;;;27.40;99.90;;;;;;5113929;28;20200;-83
2023/08/21 07:45:10;;;;;;;4.85;4.40;;;27.40;99.90;;;;;;5113766;28;20228;-82
2023/08/21 07:47:37;;;;;;;6.75;6.22;;;27.40;99.90;;;;;;5113897;28;20200;-82
2023/08/21 07:50:05;;;;;;;4.72;3.97;;;27.40;99.90;;;;;;5113786;28;20197;-82
2023/08/21 07:52:32;;;;;;;5.93;5.47;;;27.50;99.90;;;;;;5113687;28;20197;-82
2023/08/21 07:55:00;;;;;;;6.38;5.38;;;27.60;99.90;;;;;;5113476;28;20223;-82
2023/08/21 07:57:27;;;;;;;7.32;3.10;;;27.70;99.90;;;;;;5113784;28;20231;-82
2023/08/21 07:59:56;;;;;;;7.03;5.72;;;27.70;99.90;;;;;;5113762;28;20204;-82
2023/08/21 08:02:24;;;;;;;4.63;3.97;;;27.80;99.90;;;;;;5113514;28;20200;-83
2023/08/21 08:04:50;;;;;;;7.40;6.20;;;27.90;99.90;;;;;;5113663;28;20225;-83
2023/08/21 08:07:17;;;;;;;7.18;5.25;;;28.10;99.90;;;;;;5113650;28;20211;-83
2023/08/21 08:09:44;;;;;;;7.95;4.85;;;28.20;99.90;;;;;;5113644;28;20202;-84
2023/08/21 08:12:11;;;;;;;7.00;4.22;;;28.50;99.90;;;;;;5117062;28;20663;-82
2023/08/21 08:14:38;;;;;;;4.82;4.07;;;28.80;99.90;;;;;;5117428;28;20612;-83
2023/08/21 08:17:06;;;;;;;7.97;6.72;;;28.90;99.90;;;;;;5117723;28;20213;-83
2023/08/21 08:19:33;;;;;;;7.05;5.72;;;28.90;99.90;;;;;;5117748;28;20195;-83
2023/08/21 08:21:59;;;;;;;8.40;6.10;;;28.90;99.90;;;;;;5117660;28;20199;-83
2023/08/21 08:24:26;;;;;;;10.50;9.60;;;29.00;99.90;;;;;;5117732;28;20200;-83
2023/08/21 08:26:54;;;;;;;10.32;9.15;;;29.00;99.90;;;;;;5117852;28;20200;-84
2023/08/21 08:29:21;;;;;;;12.45;11.23;;;29.20;99.90;;;;;;5117232;28;20657;-83
2023/08/21 08:31:47;;;;;;;13.25;12.02;;;29.40;99.90;;;;;;5117359;27;20662;-83
2023/08/21 08:34:20;;;;;;;22.30;20.33;;;29.70;99.90;;;;;;5116996;28;20213;-83
2023/08/21 08:36:47;;;;;;;12.43;11.35;;;29.90;99.90;;;;;;5117145;28;20259;-83
2023/08/21 08:39:14;;;;;;;21.60;19.80;;;29.90;99.90;;;;;;5116395;28;20208;-83
2023/08/21 08:41:49;;;;;;;24.98;23.52;;;29.90;99.90;;;;;;5116975;28;20208;-83
2023/08/21 08:44:17;;;;;;;22.80;20.95;;;29.90;99.90;;;;;;5116888;28;20187;-83
2023/08/21 08:46:44;;;;;;;24.95;23.17;;;29.80;99.90;;;;;;5116470;28;20260;-83
2023/08/21 08:49:12;;;;;;;28.92;26.73;;;29.80;99.90;;;;;;5115937;28;20215;-83
2023/08/21 08:51:42;;;;;;;26.15;24.13;;;29.80;99.90;;;;;;5116797;28;20227;-83
2023/08/21 08:54:10;;;;;;;30.95;28.75;;;29.90;99.90;;;;;;5116607;28;20578;-83
2023/08/21 08:56:36;;;;;;;34.92;32.67;;;30.10;99.90;;;;;;5117002;28;20214;-83
2023/08/21 08:59:04;;;;;;;132.80;126.32;;;30.40;99.90;;;;;;5116972;28;20209;-83
2023/08/21 09:01:31;;;;;;;33.65;31.45;;;30.80;99.90;;;;;;5116691;28;20305;-82
2023/08/21 09:03:58;;;;;;;38.20;35.75;;;31.20;99.90;;;;;;5115798;28;20237;-83
2023/08/21 09:06:25;;;;;;;42.60;40.00;;;31.40;99.90;;;;;;5115523;28;20216;-82
2023/08/21 09:08:56;;;;;;;25.77;24.00;;;31.50;99.90;;;;;;5115535;28;20205;-82
2023/08/21 09:11:23;;;;;;;18.40;17.13;;;31.60;99.90;;;;;;5115792;28;20201;-82
2023/08/21 09:13:51;;;;;;;30.95;29.08;;;31.80;99.90;;;;;;5115362;28;20224;-83
2023/08/21 09:16:19;;;;;;;45.45;42.72;;;31.90;99.90;;;;;;5115334;28;20223;-82
2023/08/21 09:18:49;;;;;;;36.70;34.15;;;31.80;99.90;;;;;;5115424;28;20186;-82
2023/08/21 09:21:19;;;;;;;39.95;37.60;;;31.70;99.90;;;;;;5114943;28;20201;-82
2023/08/21 09:23:46;;;;;;;20.23;18.75;;;31.60;99.90;;;;;;5115328;28;20193;-82
2023/08/21 09:26:21;;;;;;;28.48;26.88;;;31.60;99.90;;;;;;5115218;28;20279;-82
2023/08/21 09:28:48;;;;;;;35.92;33.78;;;31.70;99.90;;;;;;5115322;28;20247;-82
2023/08/21 09:31:15;;;;;;;33.50;31.38;;;31.80;99.90;;;;;;5115213;28;20192;-82
2023/08/21 09:33:42;;;;;;;40.70;38.15;;;31.80;99.90;;;;;;5115090;28;20659;-82
2023/08/21 09:36:10;;;;;;;32.85;30.65;;;31.70;99.90;;;;;;5115273;28;20237;-92
2023/08/21 09:38:40;;;;;;;31.90;29.90;;;31.60;99.90;;;;;;5116828;28;20296;-91
2023/08/21 09:41:07;;;;;;;39.10;36.53;;;31.50;99.90;;;;;;5116342;28;20236;-93
2023/08/21 09:43:42;;;;;;;38.80;36.53;;;31.50;99.90;;;;;;5116243;28;20259;-93
2023/08/21 09:46:09;;;;;;;52.85;49.90;;;31.30;99.90;;;;;;5116182;28;20225;-93
2023/08/21 09:48:37;;;;;;;31.60;29.52;;;31.20;99.90;;;;;;5116626;28;20202;-94
2023/08/21 09:51:05;;;;;;;30.58;28.50;;;31.00;99.90;;;;;;5116227;28;20204;-93
2023/08/21 09:53:32;;;;;;;32.53;30.52;;;30.90;99.90;;;;;;5115938;28;20236;-93
2023/08/21 09:56:03;;;;;;;38.60;36.45;;;30.80;99.90;;;;;;5115439;28;20335;-86
2023/08/21 09:58:29;;;;;;;35.05;32.50;;;31.10;99.90;;;;;;5115757;28;20187;-91
2023/08/21 10:00:59;;;;;;;35.28;32.97;;;31.60;99.90;;;;;;5115474;28;20206;-91
2023/08/21 10:03:27;;;;;;;24.13;22.38;;;32.00;99.90;;;;;;5079030;28;1055852;-90
2023/08/21 10:05:56;;;;;;;36.90;34.65;;;32.20;99.90;;;;;;5116428;28;20225;-89
2023/08/21 10:08:26;;;;;;;40.03;37.47;;;32.40;99.90;;;;;;5116676;27;20207;-91
2023/08/21 10:10:53;;;;;;;31.23;29.35;;;32.50;99.90;;;;;;5119997;28;20259;-90
2023/08/21 10:13:20;;;;;;;28.98;26.98;;;32.40;99.90;;;;;;5120652;28;20274;-90
2023/08/21 10:15:47;;;;;;;32.22;30.20;;;32.40;99.90;;;;;;5116644;28;20223;-91
2023/08/21 10:18:24;;;;;;;26.63;24.77;;;32.40;99.90;;;;;;5116777;28;20206;-92
2023/08/21 10:20:51;;;;;;;27.60;25.92;;;32.40;99.90;;;;;;5117150;28;20192;-91
2023/08/21 10:23:27;;;;;;;31.98;29.85;;;32.40;99.90;;;;;;5116733;28;20185;-91
2023/08/21 10:25:57;;;;;;;30.50;28.55;;;32.40;99.90;;;;;;5116653;28;20223;-90
2023/08/21 10:28:24;;;;;;;33.00;30.92;;;32.40;99.90;;;;;;5116451;28;20686;-90
2023/08/21 10:30:51;;;;;;;28.65;26.85;;;32.30;99.90;;;;;;5116401;28;20211;-91
2023/08/21 10:33:19;;;;;;;24.38;22.85;;;32.30;99.90;;;;;;5115214;28;20670;-91
2023/08/21 10:35:47;;;;;;;29.38;27.70;;;32.10;99.90;;;;;;5120501;28;20274;-90
2023/08/21 10:38:16;;;;;;;32.88;30.92;;;32.30;99.90;;;;;;5125598;28;20198;-91
2023/08/21 10:41:06;;;;;;;28.42;26.50;;;32.40;99.90;;;;;;5124147;28;20203;-91
2023/08/21 10:43:40;;;;;;;37.97;35.53;;;32.40;99.90;;;;;;5124441;28;20273;-90
2023/08/21 10:46:07;;;;;;;28.33;26.27;;;32.40;99.90;;;;;;5122118;28;20227;-90
2023/08/21 10:48:35;;;;;;;35.20;33.03;;;32.40;99.90;;;;;;5123081;28;20659;-90
2023/08/21 10:51:04;;;;;;;29.30;27.50;;;32.30;99.90;;;;;;5125732;28;20311;-90
2023/08/21 10:53:32;;;;;;;22.77;21.00;;;32.00;99.90;;;;;;5121004;28;20202;-91
2023/08/21 10:56:02;;;;;;;28.92;27.25;;;31.80;99.90;;;;;;5122107;28;20222;-91
2023/08/21 10:58:29;;;;;;;38.20;35.72;;;31.70;99.90;;;;;;5123731;28;20200;-90
2023/08/21 11:00:59;;;;;;;44.88;42.38;;;32.30;99.90;;;;;;5122078;28;20670;-89
2023/08/21 11:03:27;;;;;;;39.10;36.72;;;32.80;99.90;;;;;;5122685;28;20253;-91
2023/08/21 11:06:03;;;;;;;91.10;86.38;;;33.40;99.90;;;;;;5118581;28;20271;-81
2023/08/21 11:08:30;;;;;;;104.53;99.47;;;33.60;99.90;;;;;;5114508;28;20527;-82
2023/08/21 11:10:57;;;;;;;93.22;88.18;;;33.80;99.90;;;;;;5114704;28;20199;-82
2023/08/21 11:13:24;;;;;;;95.90;91.30;;;33.90;99.90;;;;;;5115040;28;20283;-80
2023/08/21 11:15:59;;;;;;;82.05;78.18;;;33.60;99.90;;;;;;5114111;28;20223;-80
2023/08/21 11:18:31;;;;;;;106.25;101.10;;;33.30;99.90;;;;;;5114315;28;20187;-81
2023/08/21 11:21:09;;;;;;;105.22;100.20;;;33.00;99.90;;;;;;5113960;28;20557;-80
2023/08/21 11:23:37;;;;;;;30.75;28.90;;;32.60;99.90;;;;;;5113934;28;20748;-80
2023/08/21 11:26:05;;;;;;;52.63;49.53;;;32.20;99.90;;;;;;5114074;28;20222;-79
2023/08/21 11:28:32;;;;;;;36.15;34.03;;;32.00;99.90;;;;;;5114130;28;20205;-79
2023/08/21 11:31:00;;;;;;;62.63;59.30;;;31.90;99.90;;;;;;5113748;28;20209;-79
2023/08/21 11:33:28;;;;;;;69.03;65.47;;;31.90;99.90;;;;;;5114311;28;20191;-79
2023/08/21 11:35:57;;;;;;;60.10;56.80;;;31.90;99.90;;;;;;5113860;28;20235;-79
2023/08/21 11:38:27;;;;;;;43.75;41.00;;;32.00;99.90;;;;;;5114049;28;20202;-79
2023/08/21 11:40:55;;;;;;;52.13;49.00;;;32.10;99.90;;;;;;5113991;28;20195;-79
2023/08/21 11:43:22;;;;;;;40.88;38.65;;;32.10;99.90;;;;;;5113666;28;20695;-79
2023/08/21 11:45:49;;;;;;;58.03;54.97;;;32.20;99.90;;;;;;5113404;28;20223;-79
2023/08/21 11:48:19;;;;;;;40.03;37.42;;;32.30;99.90;;;;;;5113583;28;20669;-80
2023/08/21 11:50:49;;;;;;;51.67;48.83;;;32.20;99.90;;;;;;5113491;28;20189;-80
2023/08/21 11:53:15;;;;;;;65.88;62.30;;;32.20;99.90;;;;;;5113748;28;20204;-79
2023/08/21 11:55:44;;;;;;;34.30;32.28;;;32.30;99.90;;;;;;5113671;28;20236;-79
2023/08/21 11:58:11;;;;;;;40.08;37.45;;;32.40;99.90;;;;;;5113813;28;20199;-79
2023/08/21 12:00:41;;;;;;;83.45;78.57;;;32.50;99.90;;;;;;5113432;28;20574;-79
2023/08/21 12:03:09;;;;;;;81.05;77.00;;;32.60;99.90;;;;;;5113454;28;20226;-79
2023/08/21 12:05:43;;;;;;;79.35;75.38;;;32.70;99.90;;;;;;5113622;28;20263;-79
2023/08/21 12:08:10;;;;;;;72.47;68.82;;;32.40;99.90;;;;;;5113417;28;20190;-80
2023/08/21 12:10:36;;;;;;;42.03;39.67;;;32.00;99.90;;;;;;5113669;28;20197;-79
2023/08/21 12:13:04;;;;;;;53.42;50.67;;;31.90;99.90;;;;;;5113631;28;20213;-79
2023/08/21 12:15:31;;;;;;;63.58;60.38;;;31.70;99.90;;;;;;5113109;28;20231;-80
2023/08/21 12:17:58;;;;;;;71.30;67.68;;;31.70;99.90;;;;;;5113611;28;20281;-80
2023/08/21 12:20:25;;;;;;;93.38;88.65;;;31.60;99.90;;;;;;5114368;28;20209;-80
2023/08/21 12:22:51;;;;;;;53.17;50.28;;;31.80;99.90;;;;;;5113317;28;20563;-80
2023/08/21 12:25:18;;;;;;;80.63;76.65;;;31.80;99.90;;;;;;5113409;28;20705;-80
2023/08/21 12:27:45;;;;;;;70.45;66.85;;;31.70;99.90;;;;;;5113466;28;20226;-79
2023/08/21 12:30:13;;;;;;;58.03;54.80;;;31.50;99.90;;;;;;5113167;28;20695;-79
2023/08/21 12:32:40;;;;;;;40.17;37.85;;;31.40;99.90;;;;;;5113711;28;20209;-80
2023/08/21 12:35:11;;;;;;;40.15;37.75;;;31.30;99.90;;;;;;5113295;28;20314;-80
2023/08/21 12:37:38;;;;;;;35.28;33.22;;;31.20;99.90;;;;;;5113395;28;20183;-80
2023/08/21 12:40:05;;;;;;;27.85;25.95;;;31.00;99.90;;;;;;5113416;28;20206;-80
2023/08/21 12:42:32;;;;;;;33.97;32.03;;;31.00;99.90;;;;;;5113375;28;20197;-80